sensor_id;sensor_type;location;lat;lon;timestamp;noise_LAeq;noise_LA_min;noise_LA_max;noise_LA01;noise_LA95
76338;Laerm;20358;50.272;19.026;2023-06-10T00:02:54;55.25;42.12;67.84;;
76338;Laerm;20358;50.272;19.026;2023-06-10T00:06:02;46.69;39.61;59.89;;
76338;Laerm;20358;50.272;19.026;2023-06-10T00:09:17;43.26;39.44;58.62;;
76338;Laerm;20358;50.272;19.026;2023-06-10T00:12:25;43.84;40.67;53.58;;
76338;Laerm;20358;50.272;19.026;2023-06-10T00:15:37;45.64;39.00;58.91;;
76338;Laerm;20358;50.272;19.026;2023-06-10T00:18:49;44.98;39.64;58.00;;
76338;Laerm;20358;50.272;19.026;2023-06-10T00:21:57;44.70;38.98;63.20;;
76338;Laerm;20358;50.272;19.026;2023-06-10T00:25:05;44.59;39.29;59.72;;
76338;Laerm;20358;50.272;19.026;2023-06-10T00:28:17;44.17;39.46;60.68;;
76338;Laerm;20358;50.272;19.026;2023-06-10T00:31:27;46.78;39.84;62.59;;
76338;Laerm;20358;50.272;19.026;2023-06-10T00:34:36;43.09;39.34;57.34;;
76338;Laerm;20358;50.272;19.026;2023-06-10T00:37:43;43.56;39.42;58.80;;
76338;Laerm;20358;50.272;19.026;2023-06-10T00:40:52;46.98;39.84;62.90;;
76338;Laerm;20358;50.272;19.026;2023-06-10T00:44:03;46.99;39.58;65.73;;
76338;Laerm;20358;50.272;19.026;2023-06-10T00:47:15;44.57;39.48;59.81;;
76338;Laerm;20358;50.272;19.026;2023-06-10T00:50:23;45.56;39.68;59.33;;
76338;Laerm;20358;50.272;19.026;2023-06-10T00:53:32;47.01;39.29;64.83;;
76338;Laerm;20358;50.272;19.026;2023-06-10T00:56:41;46.01;39.38;61.61;;
76338;Laerm;20358;50.272;19.026;2023-06-10T00:59:51;45.52;39.43;59.74;;
76338;Laerm;20358;50.272;19.026;2023-06-10T01:03:02;46.63;39.51;60.34;;
76338;Laerm;20358;50.272;19.026;2023-06-10T01:06:26;45.62;39.39;63.14;;
76338;Laerm;20358;50.272;19.026;2023-06-10T01:09:52;44.07;39.38;58.26;;
76338;Laerm;20358;50.272;19.026;2023-06-10T01:13:06;45.45;39.35;58.18;;
76338;Laerm;20358;50.272;19.026;2023-06-10T01:16:16;47.09;39.51;62.27;;
76338;Laerm;20358;50.272;19.026;2023-06-10T01:19:29;46.17;40.61;59.88;;
76338;Laerm;20358;50.272;19.026;2023-06-10T01:22:45;46.52;40.32;59.58;;
76338;Laerm;20358;50.272;19.026;2023-06-10T01:26:02;46.44;39.67;59.59;;
76338;Laerm;20358;50.272;19.026;2023-06-10T01:29:19;46.21;40.14;62.70;;
76338;Laerm;20358;50.272;19.026;2023-06-10T01:32:37;43.91;39.13;52.84;;
76338;Laerm;20358;50.272;19.026;2023-06-10T01:35:54;45.04;39.26;59.69;;
76338;Laerm;20358;50.272;19.026;2023-06-10T01:39:05;44.80;39.47;58.66;;
76338;Laerm;20358;50.272;19.026;2023-06-10T01:42:15;46.28;39.69;60.53;;
76338;Laerm;20358;50.272;19.026;2023-06-10T01:45:23;46.04;39.82;57.93;;
76338;Laerm;20358;50.272;19.026;2023-06-10T01:48:31;46.34;39.14;62.07;;
76338;Laerm;20358;50.272;19.026;2023-06-10T01:51:39;45.23;39.85;59.85;;
76338;Laerm;20358;50.272;19.026;2023-06-10T01:54:49;45.51;39.71;57.19;;
76338;Laerm;20358;50.272;19.026;2023-06-10T01:57:58;44.98;39.47;62.46;;
76338;Laerm;20358;50.272;19.026;2023-06-10T02:01:16;45.20;39.28;57.60;;
76338;Laerm;20358;50.272;19.026;2023-06-10T02:04:25;44.35;39.20;58.38;;
76338;Laerm;20358;50.272;19.026;2023-06-10T02:07:34;45.40;39.52;62.18;;
76338;Laerm;20358;50.272;19.026;2023-06-10T02:10:44;42.90;39.43;56.24;;
76338;Laerm;20358;50.272;19.026;2023-06-10T02:13:52;44.86;39.64;55.03;;
76338;Laerm;20358;50.272;19.026;2023-06-10T02:16:59;45.93;39.75;62.30;;
76338;Laerm;20358;50.272;19.026;2023-06-10T02:20:08;47.80;40.74;59.80;;
76338;Laerm;20358;50.272;19.026;2023-06-10T02:23:15;45.24;40.41;58.38;;
76338;Laerm;20358;50.272;19.026;2023-06-10T02:26:26;45.25;40.42;55.44;;
76338;Laerm;20358;50.272;19.026;2023-06-10T02:29:36;45.54;39.96;58.36;;
76338;Laerm;20358;50.272;19.026;2023-06-10T02:32:45;45.63;39.50;58.46;;
76338;Laerm;20358;50.272;19.026;2023-06-10T02:35:56;49.65;40.80;65.96;;
76338;Laerm;20358;50.272;19.026;2023-06-10T02:39:06;49.29;39.92;66.31;;
76338;Laerm;20358;50.272;19.026;2023-06-10T02:42:16;46.47;39.71;57.70;;
76338;Laerm;20358;50.272;19.026;2023-06-10T02:45:28;46.58;39.92;61.37;;
76338;Laerm;20358;50.272;19.026;2023-06-10T02:48:42;48.05;40.48;66.27;;
76338;Laerm;20358;50.272;19.026;2023-06-10T02:51:56;46.40;39.89;58.91;;
76338;Laerm;20358;50.272;19.026;2023-06-10T02:55:04;46.16;39.45;58.56;;
76338;Laerm;20358;50.272;19.026;2023-06-10T02:58:17;47.41;40.10;68.03;;
76338;Laerm;20358;50.272;19.026;2023-06-10T03:01:25;47.86;39.74;67.95;;
76338;Laerm;20358;50.272;19.026;2023-06-10T03:04:38;47.45;39.70;59.92;;
76338;Laerm;20358;50.272;19.026;2023-06-10T03:07:52;46.39;39.79;61.16;;
76338;Laerm;20358;50.272;19.026;2023-06-10T03:11:01;45.70;40.04;59.32;;
76338;Laerm;20358;50.272;19.026;2023-06-10T03:14:11;46.16;40.10;61.03;;
76338;Laerm;20358;50.272;19.026;2023-06-10T03:17:19;47.84;40.28;63.05;;
76338;Laerm;20358;50.272;19.026;2023-06-10T03:20:26;45.98;39.94;59.94;;
76338;Laerm;20358;50.272;19.026;2023-06-10T03:23:37;48.91;40.28;59.54;;
76338;Laerm;20358;50.272;19.026;2023-06-10T03:26:47;45.26;40.06;56.60;;
76338;Laerm;20358;50.272;19.026;2023-06-10T03:29:57;47.96;40.14;61.05;;
76338;Laerm;20358;50.272;19.026;2023-06-10T03:33:05;47.08;40.39;58.91;;
76338;Laerm;20358;50.272;19.026;2023-06-10T03:36:14;48.85;41.02;60.86;;
76338;Laerm;20358;50.272;19.026;2023-06-10T03:39:22;50.32;41.33;66.13;;
76338;Laerm;20358;50.272;19.026;2023-06-10T03:42:36;48.49;39.99;63.59;;
76338;Laerm;20358;50.272;19.026;2023-06-10T03:45:48;48.23;40.49;66.89;;
76338;Laerm;20358;50.272;19.026;2023-06-10T03:48:57;48.38;39.60;63.82;;
76338;Laerm;20358;50.272;19.026;2023-06-10T03:52:06;49.56;40.85;69.19;;
76338;Laerm;20358;50.272;19.026;2023-06-10T03:55:16;50.68;40.93;65.92;;
76338;Laerm;20358;50.272;19.026;2023-06-10T03:58:26;51.30;40.98;67.85;;
76338;Laerm;20358;50.272;19.026;2023-06-10T04:01:38;50.22;39.99;67.68;;
76338;Laerm;20358;50.272;19.026;2023-06-10T04:04:45;49.33;40.39;64.24;;
76338;Laerm;20358;50.272;19.026;2023-06-10T04:07:53;51.19;40.52;68.77;;
76338;Laerm;20358;50.272;19.026;2023-06-10T04:11:01;51.53;40.95;67.75;;
76338;Laerm;20358;50.272;19.026;2023-06-10T04:14:09;50.62;42.11;71.21;;
76338;Laerm;20358;50.272;19.026;2023-06-10T04:17:21;50.91;41.03;66.29;;
76338;Laerm;20358;50.272;19.026;2023-06-10T04:20:29;49.09;40.33;65.37;;
76338;Laerm;20358;50.272;19.026;2023-06-10T04:23:36;49.41;41.39;62.18;;
76338;Laerm;20358;50.272;19.026;2023-06-10T04:26:46;47.79;40.08;63.94;;
76338;Laerm;20358;50.272;19.026;2023-06-10T04:29:53;51.01;41.33;68.82;;
76338;Laerm;20358;50.272;19.026;2023-06-10T04:33:06;50.88;41.35;66.84;;
76338;Laerm;20358;50.272;19.026;2023-06-10T04:36:15;52.58;41.77;71.38;;
76338;Laerm;20358;50.272;19.026;2023-06-10T04:39:23;48.81;40.64;67.47;;
76338;Laerm;20358;50.272;19.026;2023-06-10T04:42:32;51.09;43.69;69.08;;
76338;Laerm;20358;50.272;19.026;2023-06-10T04:45:42;52.05;45.86;65.84;;
76338;Laerm;20358;50.272;19.026;2023-06-10T04:48:52;53.69;45.61;64.67;;
76338;Laerm;20358;50.272;19.026;2023-06-10T04:52:00;53.15;43.11;68.63;;
76338;Laerm;20358;50.272;19.026;2023-06-10T04:55:12;50.80;41.73;68.22;;
76338;Laerm;20358;50.272;19.026;2023-06-10T04:58:27;53.13;42.93;68.44;;
76338;Laerm;20358;50.272;19.026;2023-06-10T05:01:34;51.91;43.17;65.69;;
76338;Laerm;20358;50.272;19.026;2023-06-10T05:04:45;53.89;44.65;68.39;;
76338;Laerm;20358;50.272;19.026;2023-06-10T05:07:52;53.84;46.20;65.97;;
76338;Laerm;20358;50.272;19.026;2023-06-10T05:11:00;52.73;44.11;67.96;;
76338;Laerm;20358;50.272;19.026;2023-06-10T05:14:06;51.76;42.20;66.44;;
76338;Laerm;20358;50.272;19.026;2023-06-10T05:17:14;50.22;41.82;64.87;;
76338;Laerm;20358;50.272;19.026;2023-06-10T05:20:24;49.89;41.66;63.84;;
76338;Laerm;20358;50.272;19.026;2023-06-10T05:23:33;49.77;43.06;61.50;;
76338;Laerm;20358;50.272;19.026;2023-06-10T05:26:40;48.47;41.10;62.53;;
76338;Laerm;20358;50.272;19.026;2023-06-10T05:29:48;50.66;42.27;60.56;;
76338;Laerm;20358;50.272;19.026;2023-06-10T05:32:55;49.93;42.64;60.65;;
76338;Laerm;20358;50.272;19.026;2023-06-10T05:36:06;48.82;42.15;69.57;;
76338;Laerm;20358;50.272;19.026;2023-06-10T05:39:13;51.12;42.46;66.69;;
76338;Laerm;20358;50.272;19.026;2023-06-10T05:42:20;51.83;42.89;66.45;;
76338;Laerm;20358;50.272;19.026;2023-06-10T05:45:27;53.04;43.11;72.10;;
76338;Laerm;20358;50.272;19.026;2023-06-10T05:48:37;51.14;41.36;63.29;;
76338;Laerm;20358;50.272;19.026;2023-06-10T05:51:47;50.86;41.51;63.31;;
76338;Laerm;20358;50.272;19.026;2023-06-10T05:54:57;51.43;42.74;66.87;;
76338;Laerm;20358;50.272;19.026;2023-06-10T05:58:03;50.50;41.22;63.57;;
76338;Laerm;20358;50.272;19.026;2023-06-10T06:01:11;49.80;41.34;64.78;;
76338;Laerm;20358;50.272;19.026;2023-06-10T06:04:18;48.94;41.08;59.47;;
76338;Laerm;20358;50.272;19.026;2023-06-10T06:07:30;51.79;44.19;64.91;;
76338;Laerm;20358;50.272;19.026;2023-06-10T06:10:37;49.66;42.09;63.35;;
76338;Laerm;20358;50.272;19.026;2023-06-10T06:13:44;49.91;41.53;62.37;;
76338;Laerm;20358;50.272;19.026;2023-06-10T06:16:56;51.65;42.99;64.03;;
76338;Laerm;20358;50.272;19.026;2023-06-10T06:20:06;52.10;41.23;67.99;;
76338;Laerm;20358;50.272;19.026;2023-06-10T06:23:17;50.48;42.57;62.53;;
76338;Laerm;20358;50.272;19.026;2023-06-10T06:26:26;50.00;41.88;65.26;;
76338;Laerm;20358;50.272;19.026;2023-06-10T06:29:33;49.14;40.95;61.15;;
76338;Laerm;20358;50.272;19.026;2023-06-10T06:32:41;49.44;41.09;61.94;;
76338;Laerm;20358;50.272;19.026;2023-06-10T06:35:48;50.76;43.14;61.61;;
76338;Laerm;20358;50.272;19.026;2023-06-10T06:39:00;50.46;41.74;60.03;;
76338;Laerm;20358;50.272;19.026;2023-06-10T06:42:09;52.41;44.18;64.43;;
76338;Laerm;20358;50.272;19.026;2023-06-10T06:45:28;50.55;42.81;59.83;;
76338;Laerm;20358;50.272;19.026;2023-06-10T06:48:35;52.63;45.92;63.32;;
76338;Laerm;20358;50.272;19.026;2023-06-10T06:51:43;51.54;43.34;63.15;;
76338;Laerm;20358;50.272;19.026;2023-06-10T06:54:53;55.25;48.07;66.03;;
76338;Laerm;20358;50.272;19.026;2023-06-10T06:58:00;54.83;48.49;67.78;;
76338;Laerm;20358;50.272;19.026;2023-06-10T07:01:08;55.25;47.93;69.62;;
76338;Laerm;20358;50.272;19.026;2023-06-10T07:04:16;54.81;47.57;67.23;;
76338;Laerm;20358;50.272;19.026;2023-06-10T07:07:25;54.08;46.30;68.42;;
76338;Laerm;20358;50.272;19.026;2023-06-10T07:10:35;51.92;45.60;63.10;;
76338;Laerm;20358;50.272;19.026;2023-06-10T07:13:42;52.50;44.07;66.07;;
76338;Laerm;20358;50.272;19.026;2023-06-10T07:16:50;52.30;44.23;65.41;;
76338;Laerm;20358;50.272;19.026;2023-06-10T07:19:57;50.58;43.99;61.45;;
76338;Laerm;20358;50.272;19.026;2023-06-10T07:23:05;53.58;45.11;69.87;;
76338;Laerm;20358;50.272;19.026;2023-06-10T07:26:17;51.67;43.68;62.49;;
76338;Laerm;20358;50.272;19.026;2023-06-10T07:29:24;51.81;42.56;62.80;;
76338;Laerm;20358;50.272;19.026;2023-06-10T07:32:31;51.83;43.45;70.41;;
76338;Laerm;20358;50.272;19.026;2023-06-10T07:35:39;51.63;43.16;67.38;;
76338;Laerm;20358;50.272;19.026;2023-06-10T07:38:50;49.97;42.49;62.17;;
76338;Laerm;20358;50.272;19.026;2023-06-10T07:42:01;51.41;43.91;68.09;;
76338;Laerm;20358;50.272;19.026;2023-06-10T07:45:08;52.42;42.50;64.90;;
76338;Laerm;20358;50.272;19.026;2023-06-10T07:48:16;50.92;43.17;66.09;;
76338;Laerm;20358;50.272;19.026;2023-06-10T07:51:23;51.74;43.86;63.46;;
76338;Laerm;20358;50.272;19.026;2023-06-10T07:54:32;52.00;43.52;61.37;;
76338;Laerm;20358;50.272;19.026;2023-06-10T07:57:43;51.46;41.97;65.90;;
76338;Laerm;20358;50.272;19.026;2023-06-10T08:00:50;52.07;41.49;64.31;;
76338;Laerm;20358;50.272;19.026;2023-06-10T08:04:00;51.57;42.64;64.25;;
76338;Laerm;20358;50.272;19.026;2023-06-10T08:07:09;51.01;44.18;65.13;;
76338;Laerm;20358;50.272;19.026;2023-06-10T08:10:17;53.40;43.09;67.32;;
76338;Laerm;20358;50.272;19.026;2023-06-10T08:13:28;52.15;44.75;68.64;;
76338;Laerm;20358;50.272;19.026;2023-06-10T08:16:35;50.64;42.11;65.09;;
76338;Laerm;20358;50.272;19.026;2023-06-10T08:19:43;51.68;42.21;66.61;;
76338;Laerm;20358;50.272;19.026;2023-06-10T08:22:50;51.42;43.91;66.92;;
76338;Laerm;20358;50.272;19.026;2023-06-10T08:25:58;51.12;43.68;65.85;;
76338;Laerm;20358;50.272;19.026;2023-06-10T08:29:11;53.05;43.40;70.39;;
76338;Laerm;20358;50.272;19.026;2023-06-10T08:32:20;53.14;43.40;70.32;;
76338;Laerm;20358;50.272;19.026;2023-06-10T08:35:27;51.74;43.27;67.51;;
76338;Laerm;20358;50.272;19.026;2023-06-10T08:38:35;52.96;43.02;69.54;;
76338;Laerm;20358;50.272;19.026;2023-06-10T08:41:59;52.59;43.21;64.50;;
76338;Laerm;20358;50.272;19.026;2023-06-10T08:45:17;53.95;43.69;68.15;;
76338;Laerm;20358;50.272;19.026;2023-06-10T08:48:29;54.29;47.56;66.63;;
76338;Laerm;20358;50.272;19.026;2023-06-10T08:51:40;56.83;47.36;65.74;;
76338;Laerm;20358;50.272;19.026;2023-06-10T08:54:54;56.94;45.12;71.58;;
76338;Laerm;20358;50.272;19.026;2023-06-10T08:58:06;56.63;46.73;73.28;;
76338;Laerm;20358;50.272;19.026;2023-06-10T09:01:17;56.41;50.17;71.58;;
76338;Laerm;20358;50.272;19.026;2023-06-10T09:04:26;62.12;51.30;81.30;;
76338;Laerm;20358;50.272;19.026;2023-06-10T09:07:36;59.22;49.83;74.93;;
76338;Laerm;20358;50.272;19.026;2023-06-10T09:10:46;59.31;48.79;77.63;;
76338;Laerm;20358;50.272;19.026;2023-06-10T09:13:54;55.53;48.91;66.14;;
76338;Laerm;20358;50.272;19.026;2023-06-10T09:17:05;60.44;47.65;77.25;;
76338;Laerm;20358;50.272;19.026;2023-06-10T09:20:13;58.38;46.87;76.87;;
76338;Laerm;20358;50.272;19.026;2023-06-10T09:23:21;56.51;43.82;76.17;;
76338;Laerm;20358;50.272;19.026;2023-06-10T09:26:30;61.26;44.13;79.24;;
76338;Laerm;20358;50.272;19.026;2023-06-10T09:29:54;53.99;47.53;68.69;;
76338;Laerm;20358;50.272;19.026;2023-06-10T09:33:13;52.32;46.56;63.74;;
76338;Laerm;20358;50.272;19.026;2023-06-10T09:36:24;56.50;46.95;73.86;;
76338;Laerm;20358;50.272;19.026;2023-06-10T09:39:33;54.81;43.16;69.08;;
76338;Laerm;20358;50.272;19.026;2023-06-10T09:42:41;54.56;43.25;72.63;;
76338;Laerm;20358;50.272;19.026;2023-06-10T09:45:56;57.27;43.99;79.10;;
76338;Laerm;20358;50.272;19.026;2023-06-10T09:49:10;50.74;42.08;67.13;;
76338;Laerm;20358;50.272;19.026;2023-06-10T09:52:22;54.58;43.60;74.86;;
76338;Laerm;20358;50.272;19.026;2023-06-10T09:55:33;56.08;44.47;70.21;;
76338;Laerm;20358;50.272;19.026;2023-06-10T09:58:41;57.67;43.66;74.65;;
76338;Laerm;20358;50.272;19.026;2023-06-10T10:01:55;57.41;44.49;74.70;;
76338;Laerm;20358;50.272;19.026;2023-06-10T10:05:08;59.89;44.11;78.02;;
76338;Laerm;20358;50.272;19.026;2023-06-10T10:08:16;59.52;47.86;77.43;;
76338;Laerm;20358;50.272;19.026;2023-06-10T10:11:27;65.38;45.14;87.14;;
76338;Laerm;20358;50.272;19.026;2023-06-10T10:14:37;58.06;44.93;79.68;;
76338;Laerm;20358;50.272;19.026;2023-06-10T10:17:52;53.51;43.99;69.66;;
76338;Laerm;20358;50.272;19.026;2023-06-10T10:21:13;53.25;42.44;70.08;;
76338;Laerm;20358;50.272;19.026;2023-06-10T10:24:30;62.39;45.77;81.97;;
76338;Laerm;20358;50.272;19.026;2023-06-10T10:27:48;61.64;44.66;81.19;;
76338;Laerm;20358;50.272;19.026;2023-06-10T10:31:09;54.11;44.96;74.12;;
76338;Laerm;20358;50.272;19.026;2023-06-10T10:34:25;57.15;44.39;76.37;;
76338;Laerm;20358;50.272;19.026;2023-06-10T10:37:41;56.46;44.13;72.81;;
76338;Laerm;20358;50.272;19.026;2023-06-10T10:40:51;56.43;45.22;72.60;;
76338;Laerm;20358;50.272;19.026;2023-06-10T10:44:01;57.06;44.54;76.55;;
76338;Laerm;20358;50.272;19.026;2023-06-10T10:47:18;63.68;45.19;87.84;;
76338;Laerm;20358;50.272;19.026;2023-06-10T10:50:29;59.13;46.45;78.44;;
76338;Laerm;20358;50.272;19.026;2023-06-10T10:53:41;63.85;46.90;83.04;;
76338;Laerm;20358;50.272;19.026;2023-06-10T10:57:11;53.41;44.57;73.29;;
76338;Laerm;20358;50.272;19.026;2023-06-10T11:00:27;61.91;43.86;81.64;;
76338;Laerm;20358;50.272;19.026;2023-06-10T11:03:43;56.03;45.39;73.50;;
76338;Laerm;20358;50.272;19.026;2023-06-10T11:06:53;57.34;45.82;76.78;;
76338;Laerm;20358;50.272;19.026;2023-06-10T11:10:07;51.96;44.82;65.57;;
76338;Laerm;20358;50.272;19.026;2023-06-10T11:13:20;53.53;43.57;69.54;;
76338;Laerm;20358;50.272;19.026;2023-06-10T11:16:29;51.44;42.36;66.00;;
76338;Laerm;20358;50.272;19.026;2023-06-10T11:19:38;52.70;42.21;69.93;;
76338;Laerm;20358;50.272;19.026;2023-06-10T11:22:58;60.41;45.11;82.44;;
76338;Laerm;20358;50.272;19.026;2023-06-10T11:26:17;52.55;44.57;65.34;;
76338;Laerm;20358;50.272;19.026;2023-06-10T11:29:24;53.34;45.15;68.48;;
76338;Laerm;20358;50.272;19.026;2023-06-10T11:32:34;51.78;42.55;67.26;;
76338;Laerm;20358;50.272;19.026;2023-06-10T11:35:43;55.23;44.06;72.76;;
76338;Laerm;20358;50.272;19.026;2023-06-10T11:38:56;53.43;42.27;70.93;;
76338;Laerm;20358;50.272;19.026;2023-06-10T11:42:07;52.56;42.66;71.54;;
76338;Laerm;20358;50.272;19.026;2023-06-10T11:45:16;57.75;45.91;74.41;;
76338;Laerm;20358;50.272;19.026;2023-06-10T11:48:23;59.33;44.52;77.67;;
76338;Laerm;20358;50.272;19.026;2023-06-10T11:51:40;60.77;44.55;79.31;;
76338;Laerm;20358;50.272;19.026;2023-06-10T11:54:54;55.91;43.41;73.72;;
76338;Laerm;20358;50.272;19.026;2023-06-10T11:58:05;57.08;44.24;78.21;;
76338;Laerm;20358;50.272;19.026;2023-06-10T12:01:20;52.96;43.31;69.94;;
76338;Laerm;20358;50.272;19.026;2023-06-10T12:04:31;53.45;43.38;73.96;;
76338;Laerm;20358;50.272;19.026;2023-06-10T12:07:38;52.64;44.45;66.87;;
76338;Laerm;20358;50.272;19.026;2023-06-10T12:10:46;58.64;44.25;80.16;;
76338;Laerm;20358;50.272;19.026;2023-06-10T12:13:56;57.79;44.63;78.82;;
76338;Laerm;20358;50.272;19.026;2023-06-10T12:17:04;58.89;46.14;81.74;;
76338;Laerm;20358;50.272;19.026;2023-06-10T12:20:26;52.31;44.45;66.27;;
76338;Laerm;20358;50.272;19.026;2023-06-10T12:23:36;50.74;44.37;62.81;;
76338;Laerm;20358;50.272;19.026;2023-06-10T12:26:44;52.88;43.63;67.79;;
76338;Laerm;20358;50.272;19.026;2023-06-10T12:29:57;52.34;43.67;73.44;;
76338;Laerm;20358;50.272;19.026;2023-06-10T12:33:16;52.25;45.36;64.82;;
76338;Laerm;20358;50.272;19.026;2023-06-10T12:36:24;55.11;43.63;73.94;;
76338;Laerm;20358;50.272;19.026;2023-06-10T12:39:32;52.57;44.29;68.61;;
76338;Laerm;20358;50.272;19.026;2023-06-10T12:42:41;55.26;43.51;78.81;;
76338;Laerm;20358;50.272;19.026;2023-06-10T12:45:54;54.26;44.44;68.66;;
76338;Laerm;20358;50.272;19.026;2023-06-10T12:49:02;52.14;42.87;66.94;;
76338;Laerm;20358;50.272;19.026;2023-06-10T12:52:08;53.01;43.35;70.51;;
76338;Laerm;20358;50.272;19.026;2023-06-10T12:55:16;54.79;45.33;72.34;;
76338;Laerm;20358;50.272;19.026;2023-06-10T12:58:23;54.60;44.48;74.06;;
76338;Laerm;20358;50.272;19.026;2023-06-10T13:01:34;51.47;43.64;65.29;;
76338;Laerm;20358;50.272;19.026;2023-06-10T13:04:41;50.00;42.22;65.82;;
76338;Laerm;20358;50.272;19.026;2023-06-10T13:07:49;49.81;42.04;66.05;;
76338;Laerm;20358;50.272;19.026;2023-06-10T13:10:56;51.53;43.77;64.60;;
76338;Laerm;20358;50.272;19.026;2023-06-10T13:14:04;50.45;41.68;61.70;;
76338;Laerm;20358;50.272;19.026;2023-06-10T13:17:14;51.14;42.48;63.51;;
76338;Laerm;20358;50.272;19.026;2023-06-10T13:20:23;49.53;41.89;59.35;;
76338;Laerm;20358;50.272;19.026;2023-06-10T13:23:30;50.16;41.50;62.43;;
76338;Laerm;20358;50.272;19.026;2023-06-10T13:26:39;50.02;42.80;60.45;;
76338;Laerm;20358;50.272;19.026;2023-06-10T13:29:47;50.42;42.17;62.17;;
76338;Laerm;20358;50.272;19.026;2023-06-10T13:32:57;50.69;41.43;63.56;;
76338;Laerm;20358;50.272;19.026;2023-06-10T13:36:05;55.58;42.49;75.71;;
76338;Laerm;20358;50.272;19.026;2023-06-10T13:39:15;50.91;44.00;67.45;;
76338;Laerm;20358;50.272;19.026;2023-06-10T13:42:22;50.88;41.70;66.28;;
76338;Laerm;20358;50.272;19.026;2023-06-10T13:45:35;50.02;42.75;62.58;;
76338;Laerm;20358;50.272;19.026;2023-06-10T13:48:46;50.95;42.07;65.09;;
76338;Laerm;20358;50.272;19.026;2023-06-10T13:51:53;50.78;42.33;61.01;;
76338;Laerm;20358;50.272;19.026;2023-06-10T13:55:00;51.60;41.62;66.31;;
76338;Laerm;20358;50.272;19.026;2023-06-10T13:58:13;49.52;41.97;61.73;;
76338;Laerm;20358;50.272;19.026;2023-06-10T14:01:21;50.31;43.03;60.70;;
76338;Laerm;20358;50.272;19.026;2023-06-10T14:04:32;52.35;42.54;67.78;;
76338;Laerm;20358;50.272;19.026;2023-06-10T14:07:39;51.54;42.60;67.32;;
76338;Laerm;20358;50.272;19.026;2023-06-10T14:10:47;51.02;43.98;61.83;;
76338;Laerm;20358;50.272;19.026;2023-06-10T14:13:54;52.35;42.68;70.51;;
76338;Laerm;20358;50.272;19.026;2023-06-10T14:17:05;52.23;43.58;68.71;;
76338;Laerm;20358;50.272;19.026;2023-06-10T14:20:15;52.37;42.17;70.40;;
76338;Laerm;20358;50.272;19.026;2023-06-10T14:23:23;63.64;48.13;86.41;;
76338;Laerm;20358;50.272;19.026;2023-06-10T14:26:31;56.97;44.97;82.03;;
76338;Laerm;20358;50.272;19.026;2023-06-10T14:29:39;52.08;44.74;60.92;;
76338;Laerm;20358;50.272;19.026;2023-06-10T14:32:46;53.10;47.19;64.07;;
76338;Laerm;20358;50.272;19.026;2023-06-10T14:35:57;56.83;50.13;72.75;;
76338;Laerm;20358;50.272;19.026;2023-06-10T14:39:04;57.33;50.26;67.45;;
76338;Laerm;20358;50.272;19.026;2023-06-10T14:42:14;57.52;50.44;67.55;;
76338;Laerm;20358;50.272;19.026;2023-06-10T14:45:22;55.28;48.98;65.88;;
76338;Laerm;20358;50.272;19.026;2023-06-10T14:48:29;53.47;45.53;63.36;;
76338;Laerm;20358;50.272;19.026;2023-06-10T14:51:39;51.15;43.50;65.72;;
76338;Laerm;20358;50.272;19.026;2023-06-10T14:54:49;52.15;43.66;62.60;;
76338;Laerm;20358;50.272;19.026;2023-06-10T14:57:56;52.40;43.20;62.47;;
76338;Laerm;20358;50.272;19.026;2023-06-10T15:01:03;51.23;42.47;64.82;;
76338;Laerm;20358;50.272;19.026;2023-06-10T15:04:11;51.04;41.99;60.65;;
76338;Laerm;20358;50.272;19.026;2023-06-10T15:07:22;55.51;41.65;79.78;;
76338;Laerm;20358;50.272;19.026;2023-06-10T15:10:29;50.30;41.82;62.59;;
76338;Laerm;20358;50.272;19.026;2023-06-10T15:13:36;50.55;41.89;60.97;;
76338;Laerm;20358;50.272;19.026;2023-06-10T15:16:43;52.72;43.07;67.96;;
76338;Laerm;20358;50.272;19.026;2023-06-10T15:19:51;51.23;43.95;60.10;;
76338;Laerm;20358;50.272;19.026;2023-06-10T15:23:02;52.62;43.10;64.31;;
76338;Laerm;20358;50.272;19.026;2023-06-10T15:26:12;50.91;42.30;62.00;;
76338;Laerm;20358;50.272;19.026;2023-06-10T15:29:19;51.81;43.44;62.71;;
76338;Laerm;20358;50.272;19.026;2023-06-10T15:32:27;50.01;42.00;59.95;;
76338;Laerm;20358;50.272;19.026;2023-06-10T15:35:34;50.47;42.09;60.79;;
76338;Laerm;20358;50.272;19.026;2023-06-10T15:38:45;50.87;41.52;62.24;;
76338;Laerm;20358;50.272;19.026;2023-06-10T15:41:52;50.00;41.85;68.22;;
76338;Laerm;20358;50.272;19.026;2023-06-10T15:45:00;52.02;42.25;65.41;;
76338;Laerm;20358;50.272;19.026;2023-06-10T15:48:07;50.11;43.02;65.81;;
76338;Laerm;20358;50.272;19.026;2023-06-10T15:51:17;48.80;41.82;60.22;;
76338;Laerm;20358;50.272;19.026;2023-06-10T15:54:26;51.94;42.15;61.19;;
76338;Laerm;20358;50.272;19.026;2023-06-10T15:57:34;49.81;42.33;62.31;;
76338;Laerm;20358;50.272;19.026;2023-06-10T16:00:41;49.82;41.61;59.81;;
76338;Laerm;20358;50.272;19.026;2023-06-10T16:03:51;51.01;43.48;62.53;;
76338;Laerm;20358;50.272;19.026;2023-06-10T16:06:58;50.23;41.42;58.94;;
76338;Laerm;20358;50.272;19.026;2023-06-10T16:10:09;50.87;43.69;60.65;;
76338;Laerm;20358;50.272;19.026;2023-06-10T16:13:17;52.43;42.82;72.94;;
76338;Laerm;20358;50.272;19.026;2023-06-10T16:16:25;51.08;42.22;63.20;;
76338;Laerm;20358;50.272;19.026;2023-06-10T16:19:32;48.24;41.69;59.38;;
76338;Laerm;20358;50.272;19.026;2023-06-10T16:22:46;52.96;42.89;63.94;;
76338;Laerm;20358;50.272;19.026;2023-06-10T16:25:56;50.71;42.51;61.65;;
76338;Laerm;20358;50.272;19.026;2023-06-10T16:29:04;51.23;42.13;74.84;;
76338;Laerm;20358;50.272;19.026;2023-06-10T16:32:11;51.74;42.80;66.44;;
76338;Laerm;20358;50.272;19.026;2023-06-10T16:35:19;50.35;43.04;66.46;;
76338;Laerm;20358;50.272;19.026;2023-06-10T16:38:26;50.82;42.02;61.50;;
76338;Laerm;20358;50.272;19.026;2023-06-10T16:41:36;50.32;41.28;64.13;;
76338;Laerm;20358;50.272;19.026;2023-06-10T16:44:43;50.68;42.48;62.20;;
76338;Laerm;20358;50.272;19.026;2023-06-10T16:47:51;48.97;40.86;61.70;;
76338;Laerm;20358;50.272;19.026;2023-06-10T16:50:58;53.54;42.24;72.11;;
76338;Laerm;20358;50.272;19.026;2023-06-10T16:54:08;50.54;43.48;59.43;;
76338;Laerm;20358;50.272;19.026;2023-06-10T16:57:18;51.65;41.50;63.42;;
76338;Laerm;20358;50.272;19.026;2023-06-10T17:00:26;51.28;41.94;63.61;;
76338;Laerm;20358;50.272;19.026;2023-06-10T17:03:33;49.60;41.30;61.07;;
76338;Laerm;20358;50.272;19.026;2023-06-10T17:06:42;50.35;41.67;61.91;;
76338;Laerm;20358;50.272;19.026;2023-06-10T17:09:49;52.37;42.96;61.87;;
76338;Laerm;20358;50.272;19.026;2023-06-10T17:12:59;50.56;42.45;62.35;;
76338;Laerm;20358;50.272;19.026;2023-06-10T17:16:08;50.23;41.84;62.77;;
76338;Laerm;20358;50.272;19.026;2023-06-10T17:19:16;59.74;42.59;83.80;;
76338;Laerm;20358;50.272;19.026;2023-06-10T17:22:26;50.00;42.28;60.03;;
76338;Laerm;20358;50.272;19.026;2023-06-10T17:25:34;49.23;41.50;59.87;;
76338;Laerm;20358;50.272;19.026;2023-06-10T17:28:43;49.56;41.46;62.12;;